sensor_id;sensor_type;location;lat;lon;timestamp;pressure;altitude;pressure_sealevel;temperature;humidity
9415;BME280;4746;35.664;139.738;2023-07-20T00:00:48;99419.34;;;37.74;37.84
9415;BME280;4746;35.664;139.738;2023-07-20T00:03:20;99423.69;;;37.90;37.39
9415;BME280;4746;35.664;139.738;2023-07-20T00:05:52;99415.44;;;37.99;36.89
9415;BME280;4746;35.664;139.738;2023-07-20T00:08:19;99416.81;;;37.95;36.71
9415;BME280;4746;35.664;139.738;2023-07-20T00:10:47;99418.13;;;38.14;36.63
9415;BME280;4746;35.664;139.738;2023-07-20T00:13:15;99418.19;;;38.28;35.68
9415;BME280;4746;35.664;139.738;2023-07-20T00:15:42;99417.91;;;38.23;35.75
9415;BME280;4746;35.664;139.738;2023-07-20T00:18:10;99405.63;;;38.28;35.64
9415;BME280;4746;35.664;139.738;2023-07-20T00:20:38;99412.41;;;38.39;35.73
9415;BME280;4746;35.664;139.738;2023-07-20T00:23:05;99414.34;;;38.45;35.72
9415;BME280;4746;35.664;139.738;2023-07-20T00:25:34;99406.47;;;38.58;34.79
9415;BME280;4746;35.664;139.738;2023-07-20T00:28:02;99409.34;;;38.71;34.91
9415;BME280;4746;35.664;139.738;2023-07-20T00:30:30;99403.91;;;38.79;34.82
9415;BME280;4746;35.664;139.738;2023-07-20T00:32:57;99400.47;;;38.85;34.46
9415;BME280;4746;35.664;139.738;2023-07-20T00:35:25;99393.19;;;38.79;34.69
9415;BME280;4746;35.664;139.738;2023-07-20T00:37:52;99396.06;;;38.77;34.40
9415;BME280;4746;35.664;139.738;2023-07-20T00:40:20;99391.53;;;38.78;34.54
9415;BME280;4746;35.664;139.738;2023-07-20T00:42:47;99405.94;;;38.77;34.75
9415;BME280;4746;35.664;139.738;2023-07-20T00:45:15;99402.69;;;38.81;34.33
9415;BME280;4746;35.664;139.738;2023-07-20T00:47:42;99396.84;;;38.92;34.39
9415;BME280;4746;35.664;139.738;2023-07-20T00:50:10;99400.34;;;38.93;34.57
9415;BME280;4746;35.664;139.738;2023-07-20T00:52:39;99401.50;;;38.84;34.38
9415;BME280;4746;35.664;139.738;2023-07-20T00:55:09;99398.91;;;38.76;34.81
9415;BME280;4746;35.664;139.738;2023-07-20T00:57:37;99396.66;;;38.94;34.53
9415;BME280;4746;35.664;139.738;2023-07-20T01:00:06;99400.94;;;39.03;35.08
9415;BME280;4746;35.664;139.738;2023-07-20T01:02:34;99397.56;;;39.00;35.04
9415;BME280;4746;35.664;139.738;2023-07-20T01:05:04;99401.84;;;39.09;34.85
9415;BME280;4746;35.664;139.738;2023-07-20T01:10:49;99399.84;;;39.32;33.51
9415;BME280;4746;35.664;139.738;2023-07-20T01:13:15;99408.66;;;39.26;33.74
9415;BME280;4746;35.664;139.738;2023-07-20T01:16:00;99416.03;;;39.24;33.95
9415;BME280;4746;35.664;139.738;2023-07-20T01:18:28;99423.41;;;39.02;33.97
9415;BME280;4746;35.664;139.738;2023-07-20T01:21:16;99420.88;;;39.00;35.28
9415;BME280;4746;35.664;139.738;2023-07-20T01:27:18;99434.88;;;38.81;35.70
9415;BME280;4746;35.664;139.738;2023-07-20T01:32:48;99431.81;;;38.70;36.40
9415;BME280;4746;35.664;139.738;2023-07-20T01:35:18;99438.84;;;38.71;36.39
9415;BME280;4746;35.664;139.738;2023-07-20T01:37:48;99434.75;;;38.75;36.66
9415;BME280;4746;35.664;139.738;2023-07-20T01:40:17;99434.88;;;38.81;36.15
9415;BME280;4746;35.664;139.738;2023-07-20T01:42:46;99432.53;;;38.78;36.43
9415;BME280;4746;35.664;139.738;2023-07-20T01:45:14;99433.88;;;38.68;36.54
9415;BME280;4746;35.664;139.738;2023-07-20T01:47:42;99439.19;;;38.53;36.68
9415;BME280;4746;35.664;139.738;2023-07-20T01:50:10;99430.84;;;38.48;36.31
9415;BME280;4746;35.664;139.738;2023-07-20T01:52:37;99432.72;;;38.48;36.40
9415;BME280;4746;35.664;139.738;2023-07-20T01:55:05;99438.81;;;38.42;36.65
9415;BME280;4746;35.664;139.738;2023-07-20T01:57:33;99441.94;;;38.31;36.18
9415;BME280;4746;35.664;139.738;2023-07-20T02:00:01;99441.28;;;38.29;36.80
9415;BME280;4746;35.664;139.738;2023-07-20T02:02:28;99436.59;;;38.31;36.13
9415;BME280;4746;35.664;139.738;2023-07-20T02:04:56;99434.25;;;38.28;36.16
9415;BME280;4746;35.664;139.738;2023-07-20T02:07:24;99447.75;;;38.20;36.54
9415;BME280;4746;35.664;139.738;2023-07-20T02:09:51;99446.06;;;38.19;36.72
9415;BME280;4746;35.664;139.738;2023-07-20T02:12:19;99453.00;;;38.28;36.28
9415;BME280;4746;35.664;139.738;2023-07-20T02:14:46;99443.88;;;38.37;36.56
9415;BME280;4746;35.664;139.738;2023-07-20T02:17:14;99451.25;;;38.35;36.04
9415;BME280;4746;35.664;139.738;2023-07-20T02:19:42;99447.28;;;38.31;36.43
9415;BME280;4746;35.664;139.738;2023-07-20T02:22:09;99450.72;;;38.54;35.82
9415;BME280;4746;35.664;139.738;2023-07-20T02:24:37;99449.66;;;38.63;35.86
9415;BME280;4746;35.664;139.738;2023-07-20T02:27:06;99453.63;;;38.67;36.66
9415;BME280;4746;35.664;139.738;2023-07-20T02:29:34;99455.66;;;38.65;36.19
9415;BME280;4746;35.664;139.738;2023-07-20T02:32:03;99462.13;;;38.70;36.11
9415;BME280;4746;35.664;139.738;2023-07-20T02:34:30;99457.31;;;38.66;36.30
9415;BME280;4746;35.664;139.738;2023-07-20T02:36:58;99453.53;;;38.75;36.05
9415;BME280;4746;35.664;139.738;2023-07-20T02:39:31;99458.53;;;38.78;36.33
9415;BME280;4746;35.664;139.738;2023-07-20T02:41:58;99457.72;;;38.63;36.19
9415;BME280;4746;35.664;139.738;2023-07-20T02:44:26;99454.69;;;38.58;36.96
9415;BME280;4746;35.664;139.738;2023-07-20T02:46:53;99459.16;;;38.51;36.54
9415;BME280;4746;35.664;139.738;2023-07-20T02:49:21;99456.84;;;38.62;37.09
9415;BME280;4746;35.664;139.738;2023-07-20T02:51:48;99456.94;;;38.69;36.56
9415;BME280;4746;35.664;139.738;2023-07-20T02:54:16;99458.72;;;38.76;36.64
9415;BME280;4746;35.664;139.738;2023-07-20T02:56:44;99444.19;;;38.71;36.85
9415;BME280;4746;35.664;139.738;2023-07-20T02:59:11;99451.69;;;38.75;36.78
9415;BME280;4746;35.664;139.738;2023-07-20T03:01:39;99442.81;;;38.75;36.94
9415;BME280;4746;35.664;139.738;2023-07-20T03:04:09;99435.69;;;38.82;36.12
9415;BME280;4746;35.664;139.738;2023-07-20T03:06:39;99427.03;;;38.80;36.46
9415;BME280;4746;35.664;139.738;2023-07-20T03:09:07;99429.25;;;38.76;36.51
9415;BME280;4746;35.664;139.738;2023-07-20T03:11:36;99444.59;;;38.68;36.94
9415;BME280;4746;35.664;139.738;2023-07-20T03:14:04;99435.94;;;38.58;36.72
9415;BME280;4746;35.664;139.738;2023-07-20T03:16:31;99423.28;;;38.52;37.31
9415;BME280;4746;35.664;139.738;2023-07-20T03:19:00;99414.63;;;38.50;37.00
9415;BME280;4746;35.664;139.738;2023-07-20T03:21:28;99417.56;;;38.55;36.91
9415;BME280;4746;35.664;139.738;2023-07-20T03:23:56;99423.59;;;38.57;36.76
9415;BME280;4746;35.664;139.738;2023-07-20T03:26:24;99426.00;;;38.66;36.49
9415;BME280;4746;35.664;139.738;2023-07-20T03:28:51;99409.00;;;38.74;36.32
9415;BME280;4746;35.664;139.738;2023-07-20T03:31:19;99408.81;;;38.75;36.08
9415;BME280;4746;35.664;139.738;2023-07-20T03:33:46;99395.22;;;38.77;35.34
9415;BME280;4746;35.664;139.738;2023-07-20T03:36:14;99380.81;;;38.78;35.12
9415;BME280;4746;35.664;139.738;2023-07-20T03:38:41;99393.00;;;38.66;35.25
9415;BME280;4746;35.664;139.738;2023-07-20T03:41:09;99407.06;;;38.68;35.30
9415;BME280;4746;35.664;139.738;2023-07-20T03:43:38;99392.81;;;38.82;35.12
9415;BME280;4746;35.664;139.738;2023-07-20T03:46:06;99391.41;;;39.00;35.00
9415;BME280;4746;35.664;139.738;2023-07-20T03:48:34;99383.25;;;39.08;34.65
9415;BME280;4746;35.664;139.738;2023-07-20T03:51:02;99383.28;;;39.29;34.69
9415;BME280;4746;35.664;139.738;2023-07-20T03:53:29;99386.56;;;39.45;33.67
9415;BME280;4746;35.664;139.738;2023-07-20T03:55:57;99377.75;;;39.51;33.54
9415;BME280;4746;35.664;139.738;2023-07-20T03:58:24;99371.00;;;39.55;33.55
9415;BME280;4746;35.664;139.738;2023-07-20T04:00:52;99364.88;;;39.61;33.08
9415;BME280;4746;35.664;139.738;2023-07-20T04:03:22;99370.19;;;39.82;32.67
9415;BME280;4746;35.664;139.738;2023-07-20T04:05:55;99372.34;;;40.14;32.67
9415;BME280;4746;35.664;139.738;2023-07-20T04:08:24;99375.03;;;40.41;32.41
9415;BME280;4746;35.664;139.738;2023-07-20T04:10:52;99361.19;;;40.50;31.82
9415;BME280;4746;35.664;139.738;2023-07-20T04:13:19;99365.06;;;40.75;31.39
9415;BME280;4746;35.664;139.738;2023-07-20T04:15:47;99365.34;;;40.87;31.28
9415;BME280;4746;35.664;139.738;2023-07-20T04:18:14;99362.50;;;41.01;31.13
9415;BME280;4746;35.664;139.738;2023-07-20T04:20:42;99366.59;;;40.97;30.62
9415;BME280;4746;35.664;139.738;2023-07-20T04:23:09;99358.25;;;40.79;31.38
9415;BME280;4746;35.664;139.738;2023-07-20T04:25:39;99358.69;;;40.76;31.18
9415;BME280;4746;35.664;139.738;2023-07-20T04:28:08;99368.09;;;40.59;31.18
9415;BME280;4746;35.664;139.738;2023-07-20T04:30:36;99365.66;;;40.71;31.18
9415;BME280;4746;35.664;139.738;2023-07-20T04:33:04;99364.44;;;40.73;30.81
9415;BME280;4746;35.664;139.738;2023-07-20T04:35:53;99370.91;;;40.85;31.26
9415;BME280;4746;35.664;139.738;2023-07-20T04:38:21;99373.56;;;40.72;31.37
9415;BME280;4746;35.664;139.738;2023-07-20T04:40:50;99386.66;;;40.54;31.34
9415;BME280;4746;35.664;139.738;2023-07-20T04:43:18;99383.03;;;40.35;31.46
9415;BME280;4746;35.664;139.738;2023-07-20T04:45:49;99386.53;;;40.08;31.88
9415;BME280;4746;35.664;139.738;2023-07-20T04:48:17;99400.50;;;39.97;31.68
9415;BME280;4746;35.664;139.738;2023-07-20T04:50:46;99406.25;;;39.73;31.66
9415;BME280;4746;35.664;139.738;2023-07-20T04:53:14;99401.38;;;39.41;33.21
9415;BME280;4746;35.664;139.738;2023-07-20T04:55:49;99397.56;;;39.15;34.00
9415;BME280;4746;35.664;139.738;2023-07-20T04:58:22;99403.16;;;38.85;34.55
9415;BME280;4746;35.664;139.738;2023-07-20T05:00:50;99416.38;;;38.57;35.47
9415;BME280;4746;35.664;139.738;2023-07-20T05:03:18;99410.81;;;38.44;36.21
9415;BME280;4746;35.664;139.738;2023-07-20T05:05:48;99424.25;;;38.59;35.75
9415;BME280;4746;35.664;139.738;2023-07-20T05:08:16;99425.34;;;38.93;35.58
9415;BME280;4746;35.664;139.738;2023-07-20T05:10:45;99431.22;;;39.17;35.23
9415;BME280;4746;35.664;139.738;2023-07-20T05:13:13;99431.84;;;39.34;35.34
9415;BME280;4746;35.664;139.738;2023-07-20T05:15:41;99428.63;;;39.24;35.26
9415;BME280;4746;35.664;139.738;2023-07-20T05:18:08;99426.06;;;39.16;35.61
9415;BME280;4746;35.664;139.738;2023-07-20T05:20:36;99428.44;;;39.25;35.45
9415;BME280;4746;35.664;139.738;2023-07-20T05:23:04;99438.88;;;39.35;35.05
9415;BME280;4746;35.664;139.738;2023-07-20T05:25:32;99438.59;;;39.44;35.19
9415;BME280;4746;35.664;139.738;2023-07-20T05:28:00;99447.06;;;39.33;35.18
9415;BME280;4746;35.664;139.738;2023-07-20T05:30:28;99440.84;;;39.26;35.32
9415;BME280;4746;35.664;139.738;2023-07-20T05:32:57;99445.25;;;39.34;35.32
9415;BME280;4746;35.664;139.738;2023-07-20T05:35:26;99460.88;;;39.30;35.06
9415;BME280;4746;35.664;139.738;2023-07-20T05:37:53;99444.56;;;39.46;35.43
9415;BME280;4746;35.664;139.738;2023-07-20T05:40:21;99438.53;;;39.79;35.05
9415;BME280;4746;35.664;139.738;2023-07-20T05:42:49;99448.56;;;40.13;34.33
9415;BME280;4746;35.664;139.738;2023-07-20T05:45:19;99432.81;;;40.31;34.02
9415;BME280;4746;35.664;139.738;2023-07-20T05:47:47;99445.34;;;40.24;33.64
9415;BME280;4746;35.664;139.738;2023-07-20T05:50:15;99449.97;;;40.30;33.37
9415;BME280;4746;35.664;139.738;2023-07-20T05:52:42;99443.25;;;40.47;33.44
9415;BME280;4746;35.664;139.738;2023-07-20T05:55:11;99448.28;;;40.90;32.60
9415;BME280;4746;35.664;139.738;2023-07-20T05:57:39;99444.94;;;41.22;32.38
9415;BME280;4746;35.664;139.738;2023-07-20T06:00:11;99456.72;;;41.80;31.54
9415;BME280;4746;35.664;139.738;2023-07-20T06:02:40;99446.53;;;41.63;31.52
9415;BME280;4746;35.664;139.738;2023-07-20T06:05:09;99442.56;;;41.52;31.10
9415;BME280;4746;35.664;139.738;2023-07-20T06:07:37;99444.25;;;41.73;30.78
9415;BME280;4746;35.664;139.738;2023-07-20T06:10:06;99449.03;;;41.71;31.18
9415;BME280;4746;35.664;139.738;2023-07-20T06:12:34;99444.31;;;42.11;30.50
9415;BME280;4746;35.664;139.738;2023-07-20T06:15:16;99454.69;;;42.53;30.52
9415;BME280;4746;35.664;139.738;2023-07-20T06:17:51;99458.78;;;42.62;29.75
9415;BME280;4746;35.664;139.738;2023-07-20T06:20:18;99475.41;;;42.20;29.82
9415;BME280;4746;35.664;139.738;2023-07-20T06:22:46;99470.84;;;41.89;30.90
9415;BME280;4746;35.664;139.738;2023-07-20T06:25:13;99466.59;;;41.54;31.14
9415;BME280;4746;35.664;139.738;2023-07-20T06:27:41;99459.25;;;41.35;31.06
9415;BME280;4746;35.664;139.738;2023-07-20T06:30:11;99443.13;;;41.35;30.64
9415;BME280;4746;35.664;139.738;2023-07-20T06:32:39;99462.00;;;41.48;30.77
9415;BME280;4746;35.664;139.738;2023-07-20T06:35:07;99453.25;;;41.33;31.02
9415;BME280;4746;35.664;139.738;2023-07-20T06:37:36;99458.84;;;40.91;31.42
9415;BME280;4746;35.664;139.738;2023-07-20T06:40:04;99470.34;;;40.72;31.89
9415;BME280;4746;35.664;139.738;2023-07-20T06:42:32;99470.34;;;40.72;31.45
9415;BME280;4746;35.664;139.738;2023-07-20T06:44:59;99460.94;;;40.62;31.39
9415;BME280;4746;35.664;139.738;2023-07-20T06:47:27;99463.81;;;40.60;32.11
9415;BME280;4746;35.664;139.738;2023-07-20T06:49:54;99464.63;;;42.53;30.40
9415;BME280;4746;35.664;139.738;2023-07-20T06:52:23;99467.78;;;44.91;27.53
9415;BME280;4746;35.664;139.738;2023-07-20T06:54:51;99461.91;;;46.86;25.79
9415;BME280;4746;35.664;139.738;2023-07-20T06:57:20;99474.31;;;48.49;23.83
9415;BME280;4746;35.664;139.738;2023-07-20T06:59:48;99469.56;;;48.99;22.56
9415;BME280;4746;35.664;139.738;2023-07-20T07:02:15;99473.44;;;47.72;23.57
9415;BME280;4746;35.664;139.738;2023-07-20T07:04:43;99464.84;;;46.62;24.32
9415;BME280;4746;35.664;139.738;2023-07-20T07:07:15;99470.50;;;46.60;24.24
9415;BME280;4746;35.664;139.738;2023-07-20T07:09:43;99455.00;;;48.18;23.45
9415;BME280;4746;35.664;139.738;2023-07-20T07:12:10;99456.63;;;49.53;21.97
9415;BME280;4746;35.664;139.738;2023-07-20T07:14:37;99454.88;;;50.68;20.45
9415;BME280;4746;35.664;139.738;2023-07-20T07:17:05;99450.31;;;51.39;19.78
9415;BME280;4746;35.664;139.738;2023-07-20T07:19:33;99459.22;;;52.01;18.72
9415;BME280;4746;35.664;139.738;2023-07-20T07:22:04;99462.47;;;52.52;18.74
9415;BME280;4746;35.664;139.738;2023-07-20T07:24:31;99465.19;;;52.77;18.22
9415;BME280;4746;35.664;139.738;2023-07-20T07:27:06;99460.84;;;52.51;18.75
9415;BME280;4746;35.664;139.738;2023-07-20T07:29:33;99471.78;;;50.55;20.03
9415;BME280;4746;35.664;139.738;2023-07-20T07:32:01;99452.19;;;48.83;21.28
9415;BME280;4746;35.664;139.738;2023-07-20T07:34:28;99470.97;;;47.42;22.94
9415;BME280;4746;35.664;139.738;2023-07-20T07:36:56;99462.78;;;46.12;24.31
9415;BME280;4746;35.664;139.738;2023-07-20T07:39:23;99467.34;;;45.30;25.32
9415;BME280;4746;35.664;139.738;2023-07-20T07:41:51;99470.81;;;44.77;25.87
9415;BME280;4746;35.664;139.738;2023-07-20T07:44:19;99469.78;;;44.11;26.32
9415;BME280;4746;35.664;139.738;2023-07-20T07:46:48;99483.78;;;43.21;27.73
9415;BME280;4746;35.664;139.738;2023-07-20T07:49:17;99497.41;;;42.30;28.86
9415;BME280;4746;35.664;139.738;2023-07-20T07:51:46;99491.88;;;41.53;29.52
9415;BME280;4746;35.664;139.738;2023-07-20T07:54:14;99482.88;;;40.99;30.60
9415;BME280;4746;35.664;139.738;2023-07-20T07:56:41;99483.53;;;40.40;30.96
9415;BME280;4746;35.664;139.738;2023-07-20T07:59:10;99475.41;;;39.92;31.73
9415;BME280;4746;35.664;139.738;2023-07-20T08:01:38;99488.97;;;39.49;32.32
9415;BME280;4746;35.664;139.738;2023-07-20T08:04:05;99486.59;;;38.96;33.20
9415;BME280;4746;35.664;139.738;2023-07-20T08:06:33;99497.28;;;38.53;34.51
9415;BME280;4746;35.664;139.738;2023-07-20T08:09:01;99490.59;;;38.20;34.48
9415;BME280;4746;35.664;139.738;2023-07-20T08:11:28;99485.44;;;37.88;35.61
9415;BME280;4746;35.664;139.738;2023-07-20T08:13:58;99485.88;;;37.69;35.62
9415;BME280;4746;35.664;139.738;2023-07-20T08:16:26;99491.16;;;37.55;36.34
9415;BME280;4746;35.664;139.738;2023-07-20T08:18:54;99492.28;;;37.38;36.82
9415;BME280;4746;35.664;139.738;2023-07-20T08:21:22;99488.50;;;37.17;36.64
9415;BME280;4746;35.664;139.738;2023-07-20T08:23:49;99497.78;;;36.90;37.56
9415;BME280;4746;35.664;139.738;2023-07-20T08:26:17;99491.00;;;36.72;37.61
9415;BME280;4746;35.664;139.738;2023-07-20T08:28:45;99488.88;;;36.60;37.69
9415;BME280;4746;35.664;139.738;2023-07-20T08:31:15;99498.22;;;36.48;38.75
9415;BME280;4746;35.664;139.738;2023-07-20T08:33:43;99493.34;;;36.35;38.82
9415;BME280;4746;35.664;139.738;2023-07-20T08:36:10;99496.56;;;36.23;38.83
9415;BME280;4746;35.664;139.738;2023-07-20T08:38:38;99506.41;;;36.22;38.94
9415;BME280;4746;35.664;139.738;2023-07-20T08:41:09;99510.91;;;36.30;38.63
9415;BME280;4746;35.664;139.738;2023-07-20T08:43:38;99503.28;;;37.05;37.86
9415;BME280;4746;35.664;139.738;2023-07-20T08:46:11;99504.91;;;38.27;36.02
9415;BME280;4746;35.664;139.738;2023-07-20T08:48:42;99514.31;;;38.23;36.01
9415;BME280;4746;35.664;139.738;2023-07-20T08:51:13;99506.34;;;37.93;35.82
9415;BME280;4746;35.664;139.738;2023-07-20T08:53:41;99517.34;;;37.67;36.44
9415;BME280;4746;35.664;139.738;2023-07-20T08:56:10;99516.91;;;37.56;36.70
9415;BME280;4746;35.664;139.738;2023-07-20T08:58:44;99523.84;;;37.43;36.79
9415;BME280;4746;35.664;139.738;2023-07-20T09:01:12;99520.56;;;37.25;37.24
9415;BME280;4746;35.664;139.738;2023-07-20T09:03:44;99531.28;;;37.17;37.42
9415;BME280;4746;35.664;139.738;2023-07-20T09:06:18;99534.31;;;37.14;37.23
9415;BME280;4746;35.664;139.738;2023-07-20T09:08:48;99536.03;;;36.99;37.77
9415;BME280;4746;35.664;139.738;2023-07-20T09:11:15;99538.72;;;36.83;37.75
9415;BME280;4746;35.664;139.738;2023-07-20T09:13:44;99544.78;;;36.61;38.13
9415;BME280;4746;35.664;139.738;2023-07-20T09:16:14;99547.44;;;36.53;38.78
9415;BME280;4746;35.664;139.738;2023-07-20T09:18:43;99538.28;;;36.40;38.17
9415;BME280;4746;35.664;139.738;2023-07-20T09:21:10;99548.09;;;36.23;38.93
9415;BME280;4746;35.664;139.738;2023-07-20T09:23:38;99545.25;;;36.09;39.36
9415;BME280;4746;35.664;139.738;2023-07-20T09:26:14;99552.09;;;35.96;39.88
9415;BME280;4746;35.664;139.738;2023-07-20T09:28:55;99550.69;;;35.84;39.90
9415;BME280;4746;35.664;139.738;2023-07-20T09:31:23;99556.31;;;35.65;40.08
9415;BME280;4746;35.664;139.738;2023-07-20T09:33:54;99564.19;;;35.33;40.75
9415;BME280;4746;35.664;139.738;2023-07-20T09:36:28;99568.13;;;35.21;41.09
9415;BME280;4746;35.664;139.738;2023-07-20T09:38:56;99572.88;;;35.02;41.96
9415;BME280;4746;35.664;139.738;2023-07-20T09:41:23;99580.56;;;34.87;42.62
9415;BME280;4746;35.664;139.738;2023-07-20T09:43:53;99590.47;;;34.77;42.69
9415;BME280;4746;35.664;139.738;2023-07-20T09:46:22;99596.75;;;34.68;42.83
9415;BME280;4746;35.664;139.738;2023-07-20T09:48:55;99590.91;;;34.65;42.80
9415;BME280;4746;35.664;139.738;2023-07-20T09:51:26;99607.19;;;34.62;43.27
9415;BME280;4746;35.664;139.738;2023-07-20T09:53:54;99603.06;;;34.50;43.30
9415;BME280;4746;35.664;139.738;2023-07-20T09:56:23;99612.19;;;34.48;43.74
9415;BME280;4746;35.664;139.738;2023-07-20T09:58:52;99606.97;;;34.38;44.05
9415;BME280;4746;35.664;139.738;2023-07-20T10:01:22;99619.72;;;34.35;44.41
9415;BME280;4746;35.664;139.738;2023-07-20T10:03:58;99624.13;;;34.44;44.00
9415;BME280;4746;35.664;139.738;2023-07-20T10:06:30;99630.75;;;34.22;44.24
9415;BME280;4746;35.664;139.738;2023-07-20T10:09:04;99637.81;;;34.14;44.23
9415;BME280;4746;35.664;139.738;2023-07-20T10:11:37;99643.06;;;34.06;44.44
9415;BME280;4746;35.664;139.738;2023-07-20T10:14:08;99650.34;;;34.04;45.07
9415;BME280;4746;35.664;139.738;2023-07-20T10:16:57;99651.03;;;34.06;44.55
9415;BME280;4746;35.664;139.738;2023-07-20T10:22:06;99645.38;;;33.91;45.20
9415;BME280;4746;35.664;139.738;2023-07-20T10:24:39;99641.91;;;33.82;44.98
9415;BME280;4746;35.664;139.738;2023-07-20T10:27:08;99649.69;;;33.66;45.60
9415;BME280;4746;35.664;139.738;2023-07-20T10:29:37;99636.16;;;33.59;45.56
9415;BME280;4746;35.664;139.738;2023-07-20T10:32:08;99652.78;;;33.52;45.68
9415;BME280;4746;35.664;139.738;2023-07-20T10:34:38;99664.16;;;33.44;46.52
9415;BME280;4746;35.664;139.738;2023-07-20T10:37:05;99657.16;;;33.43;46.35
9415;BME280;4746;35.664;139.738;2023-07-20T10:39:34;99662.25;;;33.37;46.92
9415;BME280;4746;35.664;139.738;2023-07-20T10:42:10;99662.66;;;33.32;47.04
9415;BME280;4746;35.664;139.738;2023-07-20T10:45:15;99665.22;;;33.24;46.98
9415;BME280;4746;35.664;139.738;2023-07-20T10:47:48;99667.38;;;33.12;47.57
9415;BME280;4746;35.664;139.738;2023-07-20T10:50:37;99664.44;;;33.05;47.49
9415;BME280;4746;35.664;139.738;2023-07-20T10:53:23;99680.78;;;33.01;47.84
9415;BME280;4746;35.664;139.738;2023-07-20T10:56:14;99678.53;;;32.96;47.76
9415;BME280;4746;35.664;139.738;2023-07-20T10:58:49;99681.91;;;32.89;48.61
9415;BME280;4746;35.664;139.738;2023-07-20T11:01:20;99692.69;;;32.78;48.69
9415;BME280;4746;35.664;139.738;2023-07-20T11:03:51;99702.03;;;32.72;49.08
9415;BME280;4746;35.664;139.738;2023-07-20T11:09:14;99711.69;;;32.64;48.79
9415;BME280;4746;35.664;139.738;2023-07-20T11:12:18;99715.72;;;32.58;49.09
9415;BME280;4746;35.664;139.738;2023-07-20T11:14:57;99726.03;;;32.52;49.44
9415;BME280;4746;35.664;139.738;2023-07-20T11:17:34;99728.81;;;32.50;49.40
9415;BME280;4746;35.664;139.738;2023-07-20T11:20:03;99729.22;;;32.46;50.14
9415;BME280;4746;35.664;139.738;2023-07-20T11:23:02;99725.31;;;32.50;49.41
9415;BME280;4746;35.664;139.738;2023-07-20T11:26:08;99739.13;;;32.44;50.16
9415;BME280;4746;35.664;139.738;2023-07-20T11:28:38;99742.34;;;32.38;50.00
9415;BME280;4746;35.664;139.738;2023-07-20T11:31:07;99742.50;;;32.46;50.01
9415;BME280;4746;35.664;139.738;2023-07-20T11:33:38;99751.44;;;32.45;50.29
9415;BME280;4746;35.664;139.738;2023-07-20T11:36:06;99756.75;;;32.45;50.75
9415;BME280;4746;35.664;139.738;2023-07-20T11:38:33;99756.47;;;32.48;50.56
9415;BME280;4746;35.664;139.738;2023-07-20T11:41:03;99766.81;;;32.51;50.21
9415;BME280;4746;35.664;139.738;2023-07-20T11:43:30;99766.59;;;32.54;50.31
9415;BME280;4746;35.664;139.738;2023-07-20T11:46:01;99758.19;;;32.58;50.25
9415;BME280;4746;35.664;139.738;2023-07-20T11:48:28;99755.81;;;32.55;50.50
9415;BME280;4746;35.664;139.738;2023-07-20T11:50:56;99757.34;;;32.58;50.21
9415;BME280;4746;35.664;139.738;2023-07-20T11:53:25;99766.03;;;32.60;49.94
9415;BME280;4746;35.664;139.738;2023-07-20T11:55:54;99768.53;;;32.61;50.48
9415;BME280;4746;35.664;139.738;2023-07-20T11:58:22;99761.97;;;32.65;49.94
9415;BME280;4746;35.664;139.738;2023-07-20T12:00:49;99765.91;;;32.71;49.87
9415;BME280;4746;35.664;139.738;2023-07-20T12:03:18;99771.22;;;32.71;49.86
9415;BME280;4746;35.664;139.738;2023-07-20T12:05:45;99763.91;;;32.73;49.39
9415;BME280;4746;35.664;139.738;2023-07-20T12:08:13;99773.56;;;32.74;49.42
9415;BME280;4746;35.664;139.738;2023-07-20T12:10:41;99775.09;;;32.76;49.18
9415;BME280;4746;35.664;139.738;2023-07-20T12:13:13;99777.34;;;32.71;49.48
9415;BME280;4746;35.664;139.738;2023-07-20T12:15:43;99780.84;;;32.72;49.07
9415;BME280;4746;35.664;139.738;2023-07-20T12:18:11;99785.63;;;32.78;49.29
9415;BME280;4746;35.664;139.738;2023-07-20T12:20:39;99775.53;;;32.81;49.11
9415;BME280;4746;35.664;139.738;2023-07-20T12:23:13;99788.97;;;32.89;48.85
9415;BME280;4746;35.664;139.738;2023-07-20T12:25:46;99782.25;;;32.85;49.03
9415;BME280;4746;35.664;139.738;2023-07-20T12:29:00;99770.50;;;32.88;48.69
9415;BME280;4746;35.664;139.738;2023-07-20T12:31:46;99768.81;;;32.68;49.18
9415;BME280;4746;35.664;139.738;2023-07-20T12:34:13;99779.72;;;32.65;49.42
9415;BME280;4746;35.664;139.738;2023-07-20T12:36:42;99786.41;;;32.69;49.16
9415;BME280;4746;35.664;139.738;2023-07-20T12:39:09;99791.72;;;32.69;49.41
9415;BME280;4746;35.664;139.738;2023-07-20T12:41:37;99790.34;;;32.65;49.67
9415;BME280;4746;35.664;139.738;2023-07-20T12:44:07;99788.81;;;32.62;49.75
9415;BME280;4746;35.664;139.738;2023-07-20T12:46:35;99786.25;;;32.61;49.83
9415;BME280;4746;35.664;139.738;2023-07-20T12:49:06;99790.59;;;32.62;50.00
9415;BME280;4746;35.664;139.738;2023-07-20T12:51:34;99798.13;;;32.57;49.97
9415;BME280;4746;35.664;139.738;2023-07-20T12:57:30;99787.69;;;32.65;49.55
9415;BME280;4746;35.664;139.738;2023-07-20T13:00:21;99797.19;;;32.77;50.01
9415;BME280;4746;35.664;139.738;2023-07-20T13:03:02;99795.09;;;32.71;49.75
9415;BME280;4746;35.664;139.738;2023-07-20T13:05:55;99807.41;;;32.72;49.74
9415;BME280;4746;35.664;139.738;2023-07-20T13:08:22;99805.41;;;32.64;49.29
9415;BME280;4746;35.664;139.738;2023-07-20T13:11:03;99807.81;;;32.67;49.51
9415;BME280;4746;35.664;139.738;2023-07-20T13:13:32;99817.72;;;32.65;49.89
9415;BME280;4746;35.664;139.738;2023-07-20T13:15:59;99814.66;;;32.70;49.63
9415;BME280;4746;35.664;139.738;2023-07-20T13:18:27;99817.31;;;32.70;49.76
9415;BME280;4746;35.664;139.738;2023-07-20T13:20:54;99818.28;;;32.69;49.80
9415;BME280;4746;35.664;139.738;2023-07-20T13:23:22;99814.66;;;32.70;49.79
9415;BME280;4746;35.664;139.738;2023-07-20T13:25:49;99818.03;;;32.72;49.61
9415;BME280;4746;35.664;139.738;2023-07-20T13:28:17;99824.44;;;32.60;49.66
9415;BME280;4746;35.664;139.738;2023-07-20T13:30:44;99824.06;;;32.53;50.01
9415;BME280;4746;35.664;139.738;2023-07-20T13:33:17;99832.19;;;32.52;50.05